sensor_id;sensor_type;location;lat;lon;timestamp;pressure;altitude;pressure_sealevel;temperature;humidity
35908;BME280;22003;50.320;8.054;2023-05-08T04:01:36;100162.41;;;10.66;100.00
35908;BME280;22003;50.320;8.054;2023-05-08T04:04:16;100127.09;;;10.41;100.00
35908;BME280;22003;50.320;8.054;2023-05-08T04:06:43;100171.63;;;10.60;100.00
35908;BME280;22003;50.320;8.054;2023-05-08T04:09:21;100140.13;;;10.44;100.00
35908;BME280;22003;50.320;8.054;2023-05-08T04:12:10;100168.06;;;10.61;100.00
35908;BME280;22003;50.320;8.054;2023-05-08T04:14:41;100182.16;;;10.62;100.00
35908;BME280;22003;50.320;8.054;2023-05-08T04:17:09;100166.38;;;10.47;100.00
35908;BME280;22003;50.320;8.054;2023-05-08T04:19:38;100160.97;;;10.49;100.00
35908;BME280;22003;50.320;8.054;2023-05-08T04:22:07;100185.75;;;10.61;100.00
35908;BME280;22003;50.320;8.054;2023-05-08T04:24:39;100170.06;;;10.57;100.00
35908;BME280;22003;50.320;8.054;2023-05-08T04:27:08;100178.78;;;10.47;100.00
35908;BME280;22003;50.320;8.054;2023-05-08T04:29:33;100174.72;;;10.54;100.00
35908;BME280;22003;50.320;8.054;2023-05-08T04:32:00;100147.88;;;10.35;100.00
35908;BME280;22003;50.320;8.054;2023-05-08T04:34:27;100176.66;;;10.52;100.00
35908;BME280;22003;50.320;8.054;2023-05-08T04:36:53;100175.09;;;10.49;100.00
35908;BME280;22003;50.320;8.054;2023-05-08T04:39:18;100178.66;;;10.48;100.00
35908;BME280;22003;50.320;8.054;2023-05-08T04:41:44;100183.22;;;10.46;100.00
35908;BME280;22003;50.320;8.054;2023-05-08T04:44:09;100189.50;;;10.45;100.00
35908;BME280;22003;50.320;8.054;2023-05-08T04:46:35;100154.19;;;10.19;100.00
35908;BME280;22003;50.320;8.054;2023-05-08T04:49:00;100195.91;;;10.54;100.00
35908;BME280;22003;50.320;8.054;2023-05-08T04:51:26;100189.25;;;10.48;100.00
35908;BME280;22003;50.320;8.054;2023-05-08T04:53:51;100199.44;;;10.42;100.00
35908;BME280;22003;50.320;8.054;2023-05-08T04:56:16;100199.75;;;10.37;100.00
35908;BME280;22003;50.320;8.054;2023-05-08T04:58:43;100201.44;;;10.38;100.00
35908;BME280;22003;50.320;8.054;2023-05-08T05:01:08;100202.53;;;10.36;100.00
35908;BME280;22003;50.320;8.054;2023-05-08T05:03:33;100203.78;;;10.30;100.00
35908;BME280;22003;50.320;8.054;2023-05-08T05:05:59;100210.91;;;10.29;100.00
35908;BME280;22003;50.320;8.054;2023-05-08T05:08:25;100213.44;;;10.31;100.00
35908;BME280;22003;50.320;8.054;2023-05-08T05:10:51;100213.31;;;10.32;100.00
35908;BME280;22003;50.320;8.054;2023-05-08T05:13:16;100226.78;;;10.29;100.00
35908;BME280;22003;50.320;8.054;2023-05-08T05:15:42;100201.84;;;10.19;100.00
35908;BME280;22003;50.320;8.054;2023-05-08T05:18:07;100190.13;;;10.11;100.00
35908;BME280;22003;50.320;8.054;2023-05-08T05:20:32;100223.28;;;10.29;100.00
35908;BME280;22003;50.320;8.054;2023-05-08T05:22:58;100215.13;;;10.32;100.00
35908;BME280;22003;50.320;8.054;2023-05-08T05:25:23;100226.66;;;10.31;100.00
35908;BME280;22003;50.320;8.054;2023-05-08T05:27:48;100217.78;;;10.32;100.00
35908;BME280;22003;50.320;8.054;2023-05-08T05:30:14;100219.81;;;10.28;100.00
35908;BME280;22003;50.320;8.054;2023-05-08T05:32:39;100219.25;;;10.36;100.00
35908;BME280;22003;50.320;8.054;2023-05-08T05:35:05;100196.44;;;10.21;100.00
35908;BME280;22003;50.320;8.054;2023-05-08T05:37:30;100229.53;;;10.41;100.00
35908;BME280;22003;50.320;8.054;2023-05-08T05:39:55;100228.56;;;10.42;100.00
35908;BME280;22003;50.320;8.054;2023-05-08T05:42:21;100192.47;;;10.28;100.00
35908;BME280;22003;50.320;8.054;2023-05-08T05:44:46;100225.72;;;10.45;100.00
35908;BME280;22003;50.320;8.054;2023-05-08T05:47:11;100235.56;;;10.55;100.00
35908;BME280;22003;50.320;8.054;2023-05-08T05:49:36;100233.44;;;10.61;100.00
35908;BME280;22003;50.320;8.054;2023-05-08T05:52:03;100240.13;;;10.53;100.00
35908;BME280;22003;50.320;8.054;2023-05-08T05:54:28;100242.00;;;10.64;100.00
35908;BME280;22003;50.320;8.054;2023-05-08T05:56:54;100245.94;;;10.58;100.00
35908;BME280;22003;50.320;8.054;2023-05-08T05:59:19;100237.34;;;10.68;100.00
35908;BME280;22003;50.320;8.054;2023-05-08T06:01:44;100231.22;;;10.54;100.00
35908;BME280;22003;50.320;8.054;2023-05-08T06:04:10;100237.47;;;10.53;100.00
35908;BME280;22003;50.320;8.054;2023-05-08T06:06:35;100247.53;;;10.48;100.00
35908;BME280;22003;50.320;8.054;2023-05-08T06:09:01;100248.72;;;10.44;100.00
35908;BME280;22003;50.320;8.054;2023-05-08T06:11:26;100247.97;;;10.42;100.00
35908;BME280;22003;50.320;8.054;2023-05-08T06:13:51;100252.31;;;10.43;100.00
35908;BME280;22003;50.320;8.054;2023-05-08T06:16:17;100215.09;;;10.19;100.00
35908;BME280;22003;50.320;8.054;2023-05-08T06:18:44;100214.25;;;10.19;100.00
35908;BME280;22003;50.320;8.054;2023-05-08T06:21:09;100250.28;;;10.47;100.00
35908;BME280;22003;50.320;8.054;2023-05-08T06:23:35;100225.81;;;10.30;100.00
35908;BME280;22003;50.320;8.054;2023-05-08T06:26:00;100261.84;;;10.46;100.00
35908;BME280;22003;50.320;8.054;2023-05-08T06:28:25;100241.94;;;10.40;100.00
35908;BME280;22003;50.320;8.054;2023-05-08T06:30:51;100261.81;;;10.71;100.00
35908;BME280;22003;50.320;8.054;2023-05-08T06:33:17;100237.47;;;10.53;100.00
35908;BME280;22003;50.320;8.054;2023-05-08T06:35:46;100253.31;;;10.92;100.00
35908;BME280;22003;50.320;8.054;2023-05-08T06:38:12;100235.41;;;10.95;100.00
35908;BME280;22003;50.320;8.054;2023-05-08T06:40:41;100259.06;;;11.22;100.00
35908;BME280;22003;50.320;8.054;2023-05-08T06:43:06;100253.25;;;11.17;100.00
35908;BME280;22003;50.320;8.054;2023-05-08T06:45:31;100249.97;;;11.14;100.00
35908;BME280;22003;50.320;8.054;2023-05-08T06:47:57;100233.16;;;11.26;100.00
35908;BME280;22003;50.320;8.054;2023-05-08T06:50:22;100247.34;;;11.61;100.00
35908;BME280;22003;50.320;8.054;2023-05-08T06:52:47;100248.78;;;11.66;100.00
35908;BME280;22003;50.320;8.054;2023-05-08T06:55:12;100250.03;;;11.73;100.00
35908;BME280;22003;50.320;8.054;2023-05-08T06:57:38;100243.59;;;11.88;100.00
35908;BME280;22003;50.320;8.054;2023-05-08T07:00:03;100240.03;;;11.76;100.00
35908;BME280;22003;50.320;8.054;2023-05-08T07:02:29;100218.88;;;11.63;100.00
35908;BME280;22003;50.320;8.054;2023-05-08T07:04:54;100243.16;;;11.94;100.00
35908;BME280;22003;50.320;8.054;2023-05-08T07:07:19;100217.44;;;11.71;100.00
35908;BME280;22003;50.320;8.054;2023-05-08T07:09:44;100249.50;;;12.27;100.00
35908;BME280;22003;50.320;8.054;2023-05-08T07:12:10;100245.72;;;11.72;100.00
35908;BME280;22003;50.320;8.054;2023-05-08T07:14:35;100251.69;;;11.86;100.00
35908;BME280;22003;50.320;8.054;2023-05-08T07:17:04;100254.00;;;11.91;100.00
35908;BME280;22003;50.320;8.054;2023-05-08T07:19:34;100252.69;;;11.97;100.00
35908;BME280;22003;50.320;8.054;2023-05-08T07:22:00;100222.25;;;11.66;100.00
35908;BME280;22003;50.320;8.054;2023-05-08T07:24:25;100253.88;;;12.39;100.00
35908;BME280;22003;50.320;8.054;2023-05-08T07:26:50;100240.59;;;12.50;100.00
35908;BME280;22003;50.320;8.054;2023-05-08T07:29:15;100253.78;;;12.74;100.00
35908;BME280;22003;50.320;8.054;2023-05-08T07:31:41;100170.03;;;12.01;100.00
35908;BME280;22003;50.320;8.054;2023-05-08T07:34:06;100260.28;;;12.70;100.00
35908;BME280;22003;50.320;8.054;2023-05-08T07:36:31;100261.88;;;12.61;100.00
35908;BME280;22003;50.320;8.054;2023-05-08T07:38:57;100228.19;;;12.04;100.00
35908;BME280;22003;50.320;8.054;2023-05-08T07:41:22;100216.19;;;12.23;100.00
35908;BME280;22003;50.320;8.054;2023-05-08T07:43:47;100257.41;;;12.73;100.00
35908;BME280;22003;50.320;8.054;2023-05-08T07:46:16;100260.19;;;12.60;100.00
35908;BME280;22003;50.320;8.054;2023-05-08T07:48:42;100256.78;;;12.81;99.29
35908;BME280;22003;50.320;8.054;2023-05-08T07:51:08;100226.56;;;12.48;100.00
35908;BME280;22003;50.320;8.054;2023-05-08T07:53:35;100261.97;;;12.60;100.00
35908;BME280;22003;50.320;8.054;2023-05-08T07:56:00;100259.00;;;12.07;100.00
35908;BME280;22003;50.320;8.054;2023-05-08T07:58:25;100255.94;;;11.89;100.00
35908;BME280;22003;50.320;8.054;2023-05-08T08:00:51;100257.97;;;11.85;100.00
35908;BME280;22003;50.320;8.054;2023-05-08T08:03:16;100255.44;;;11.84;100.00
35908;BME280;22003;50.320;8.054;2023-05-08T08:05:41;100252.88;;;12.18;100.00
35908;BME280;22003;50.320;8.054;2023-05-08T08:08:06;100251.47;;;12.69;100.00
35908;BME280;22003;50.320;8.054;2023-05-08T08:10:32;100254.75;;;12.62;100.00
35908;BME280;22003;50.320;8.054;2023-05-08T08:12:58;100249.91;;;12.56;100.00
35908;BME280;22003;50.320;8.054;2023-05-08T08:15:25;100255.81;;;12.48;100.00
35908;BME280;22003;50.320;8.054;2023-05-08T08:17:52;100250.63;;;12.80;100.00
35908;BME280;22003;50.320;8.054;2023-05-08T08:20:17;100262.09;;;12.92;100.00
35908;BME280;22003;50.320;8.054;2023-05-08T08:22:43;100236.13;;;12.39;100.00
35908;BME280;22003;50.320;8.054;2023-05-08T08:25:08;100266.56;;;12.69;100.00
35908;BME280;22003;50.320;8.054;2023-05-08T08:27:34;100270.06;;;12.58;100.00
35908;BME280;22003;50.320;8.054;2023-05-08T08:29:59;100272.16;;;12.77;100.00
35908;BME280;22003;50.320;8.054;2023-05-08T08:32:24;100267.66;;;12.44;100.00
35908;BME280;22003;50.320;8.054;2023-05-08T08:34:50;100206.91;;;11.82;100.00
35908;BME280;22003;50.320;8.054;2023-05-08T08:37:15;100206.22;;;12.02;100.00
35908;BME280;22003;50.320;8.054;2023-05-08T08:39:40;100265.13;;;12.65;100.00
35908;BME280;22003;50.320;8.054;2023-05-08T08:42:05;100273.69;;;12.46;100.00
35908;BME280;22003;50.320;8.054;2023-05-08T08:44:31;100279.31;;;12.19;100.00
35908;BME280;22003;50.320;8.054;2023-05-08T08:46:57;100272.47;;;12.28;100.00
35908;BME280;22003;50.320;8.054;2023-05-08T08:49:34;100287.25;;;12.08;100.00
35908;BME280;22003;50.320;8.054;2023-05-08T08:52:10;100282.06;;;12.06;100.00
35908;BME280;22003;50.320;8.054;2023-05-08T08:54:40;100272.16;;;12.08;100.00
35908;BME280;22003;50.320;8.054;2023-05-08T08:57:08;100278.41;;;11.96;100.00
35908;BME280;22003;50.320;8.054;2023-05-08T08:59:36;100258.72;;;11.99;100.00
35908;BME280;22003;50.320;8.054;2023-05-08T09:02:05;100287.13;;;12.09;100.00
35908;BME280;22003;50.320;8.054;2023-05-08T09:04:32;100286.41;;;12.07;100.00
35908;BME280;22003;50.320;8.054;2023-05-08T09:06:58;100291.03;;;12.17;100.00
35908;BME280;22003;50.320;8.054;2023-05-08T09:09:24;100215.34;;;11.87;100.00
35908;BME280;22003;50.320;8.054;2023-05-08T09:11:51;100281.28;;;12.39;100.00
35908;BME280;22003;50.320;8.054;2023-05-08T09:14:16;100284.81;;;12.62;100.00
35908;BME280;22003;50.320;8.054;2023-05-08T09:16:42;100282.00;;;12.41;100.00
35908;BME280;22003;50.320;8.054;2023-05-08T09:19:07;100261.00;;;12.27;100.00
35908;BME280;22003;50.320;8.054;2023-05-08T09:21:33;100246.84;;;12.27;100.00
35908;BME280;22003;50.320;8.054;2023-05-08T09:24:00;100277.31;;;12.45;100.00
35908;BME280;22003;50.320;8.054;2023-05-08T09:26:35;100276.97;;;12.72;100.00
35908;BME280;22003;50.320;8.054;2023-05-08T09:29:18;100282.09;;;13.52;100.00
35908;BME280;22003;50.320;8.054;2023-05-08T09:31:47;100269.25;;;13.57;100.00
35908;BME280;22003;50.320;8.054;2023-05-08T09:34:27;100281.81;;;14.19;98.29
35908;BME280;22003;50.320;8.054;2023-05-08T09:39:30;100266.28;;;14.45;97.08
35908;BME280;22003;50.320;8.054;2023-05-08T09:42:00;100235.47;;;14.32;97.48
35908;BME280;22003;50.320;8.054;2023-05-08T09:44:26;100274.22;;;14.57;98.13
35908;BME280;22003;50.320;8.054;2023-05-08T09:47:08;100262.25;;;14.72;95.67
35908;BME280;22003;50.320;8.054;2023-05-08T09:49:34;100245.72;;;14.88;95.08
35908;BME280;22003;50.320;8.054;2023-05-08T09:51:59;100282.28;;;14.97;95.38
35908;BME280;22003;50.320;8.054;2023-05-08T09:54:24;100267.84;;;14.48;94.31
35908;BME280;22003;50.320;8.054;2023-05-08T09:56:50;100244.81;;;15.08;92.61
35908;BME280;22003;50.320;8.054;2023-05-08T09:59:22;100276.06;;;15.27;91.06
35908;BME280;22003;50.320;8.054;2023-05-08T10:01:48;100272.66;;;15.94;88.56
35908;BME280;22003;50.320;8.054;2023-05-08T10:04:14;100269.25;;;16.02;88.60
35908;BME280;22003;50.320;8.054;2023-05-08T10:06:39;100274.31;;;15.95;87.69
35908;BME280;22003;50.320;8.054;2023-05-08T10:09:12;100264.13;;;16.37;86.25
35908;BME280;22003;50.320;8.054;2023-05-08T10:11:39;100269.47;;;16.37;86.86
35908;BME280;22003;50.320;8.054;2023-05-08T10:14:05;100264.84;;;16.86;86.32
35908;BME280;22003;50.320;8.054;2023-05-08T10:16:35;100276.13;;;16.33;87.61
35908;BME280;22003;50.320;8.054;2023-05-08T10:19:04;100247.38;;;17.37;81.67
35908;BME280;22003;50.320;8.054;2023-05-08T10:21:35;100225.34;;;16.98;82.58
35908;BME280;22003;50.320;8.054;2023-05-08T10:24:04;100278.56;;;17.56;82.24
35908;BME280;22003;50.320;8.054;2023-05-08T10:26:32;100267.44;;;16.78;82.52
35908;BME280;22003;50.320;8.054;2023-05-08T10:29:03;100276.03;;;16.72;86.94
35908;BME280;22003;50.320;8.054;2023-05-08T10:31:34;100279.94;;;16.02;89.34
35908;BME280;22003;50.320;8.054;2023-05-08T10:34:00;100267.75;;;16.56;86.07
35908;BME280;22003;50.320;8.054;2023-05-08T10:36:26;100229.16;;;16.58;84.15
35908;BME280;22003;50.320;8.054;2023-05-08T10:38:52;100267.84;;;16.83;84.46
35908;BME280;22003;50.320;8.054;2023-05-08T10:41:18;100275.31;;;16.80;86.26
35908;BME280;22003;50.320;8.054;2023-05-08T10:43:44;100262.03;;;17.15;82.93
35908;BME280;22003;50.320;8.054;2023-05-08T10:46:28;100275.38;;;17.25;83.38
35908;BME280;22003;50.320;8.054;2023-05-08T10:49:15;100275.72;;;16.19;87.64
35908;BME280;22003;50.320;8.054;2023-05-08T10:57:29;100258.47;;;17.42;85.86
35908;BME280;22003;50.320;8.054;2023-05-08T10:59:55;100271.44;;;16.92;88.40
35908;BME280;22003;50.320;8.054;2023-05-08T11:02:28;100232.44;;;17.17;84.82
35908;BME280;22003;50.320;8.054;2023-05-08T11:05:15;100261.66;;;15.88;90.57
35908;BME280;22003;50.320;8.054;2023-05-08T11:10:19;100263.66;;;15.66;93.83
35908;BME280;22003;50.320;8.054;2023-05-08T11:12:47;100258.84;;;15.99;91.39
35908;BME280;22003;50.320;8.054;2023-05-08T11:15:14;100261.94;;;15.75;90.00
35908;BME280;22003;50.320;8.054;2023-05-08T11:17:39;100269.59;;;15.29;95.72
35908;BME280;22003;50.320;8.054;2023-05-08T11:20:10;100271.22;;;15.11;96.51
35908;BME280;22003;50.320;8.054;2023-05-08T11:22:35;100270.84;;;15.25;97.13
35908;BME280;22003;50.320;8.054;2023-05-08T11:25:04;100268.19;;;15.35;96.68
35908;BME280;22003;50.320;8.054;2023-05-08T11:30:43;100258.47;;;15.24;96.16
35908;BME280;22003;50.320;8.054;2023-05-08T11:38:20;100241.22;;;14.78;98.13
35908;BME280;22003;50.320;8.054;2023-05-08T11:46:01;100251.25;;;14.65;100.00
35908;BME280;22003;50.320;8.054;2023-05-08T11:48:28;100256.81;;;14.83;99.50
35908;BME280;22003;50.320;8.054;2023-05-08T11:50:54;100236.59;;;14.50;100.00
35908;BME280;22003;50.320;8.054;2023-05-08T11:53:19;100226.84;;;14.70;100.00
35908;BME280;22003;50.320;8.054;2023-05-08T11:55:48;100244.56;;;14.81;100.00
35908;BME280;22003;50.320;8.054;2023-05-08T11:58:15;100255.19;;;15.01;99.66
35908;BME280;22003;50.320;8.054;2023-05-08T12:00:41;100257.66;;;14.93;100.00
35908;BME280;22003;50.320;8.054;2023-05-08T12:03:11;100252.03;;;14.77;100.00
35908;BME280;22003;50.320;8.054;2023-05-08T12:05:37;100247.19;;;14.71;100.00
35908;BME280;22003;50.320;8.054;2023-05-08T12:08:04;100250.50;;;14.84;100.00
35908;BME280;22003;50.320;8.054;2023-05-08T12:10:30;100253.91;;;14.65;100.00
35908;BME280;22003;50.320;8.054;2023-05-08T12:12:55;100250.78;;;14.60;100.00
35908;BME280;22003;50.320;8.054;2023-05-08T12:15:21;100242.44;;;14.44;100.00
35908;BME280;22003;50.320;8.054;2023-05-08T12:17:46;100256.31;;;14.68;100.00
35908;BME280;22003;50.320;8.054;2023-05-08T12:20:13;100258.91;;;14.79;100.00
35908;BME280;22003;50.320;8.054;2023-05-08T12:22:39;100259.97;;;14.67;100.00
35908;BME280;22003;50.320;8.054;2023-05-08T12:25:06;100263.69;;;14.86;100.00
35908;BME280;22003;50.320;8.054;2023-05-08T12:27:32;100250.22;;;14.87;100.00
35908;BME280;22003;50.320;8.054;2023-05-08T12:29:57;100254.88;;;14.95;100.00
35908;BME280;22003;50.320;8.054;2023-05-08T12:32:22;100249.72;;;15.03;100.00
35908;BME280;22003;50.320;8.054;2023-05-08T12:34:48;100246.69;;;14.87;100.00
35908;BME280;22003;50.320;8.054;2023-05-08T12:37:25;100189.41;;;14.71;100.00
35908;BME280;22003;50.320;8.054;2023-05-08T12:39:51;100229.34;;;15.02;100.00
35908;BME280;22003;50.320;8.054;2023-05-08T12:42:16;100241.31;;;15.17;100.00
35908;BME280;22003;50.320;8.054;2023-05-08T12:44:49;100248.78;;;15.23;100.00
35908;BME280;22003;50.320;8.054;2023-05-08T12:47:17;100247.00;;;15.53;99.37
35908;BME280;22003;50.320;8.054;2023-05-08T12:49:43;100246.69;;;15.37;98.77
35908;BME280;22003;50.320;8.054;2023-05-08T12:52:11;100233.19;;;15.28;100.00
35908;BME280;22003;50.320;8.054;2023-05-08T12:54:39;100249.41;;;15.56;98.48
35908;BME280;22003;50.320;8.054;2023-05-08T12:57:23;100214.13;;;15.62;97.92
35908;BME280;22003;50.320;8.054;2023-05-08T12:59:48;100227.34;;;15.93;94.29
35908;BME280;22003;50.320;8.054;2023-05-08T13:02:18;100231.09;;;16.19;94.74
35908;BME280;22003;50.320;8.054;2023-05-08T13:04:45;100210.25;;;16.32;93.14
35908;BME280;22003;50.320;8.054;2023-05-08T13:07:10;100225.09;;;16.92;91.34
35908;BME280;22003;50.320;8.054;2023-05-08T13:09:36;100210.91;;;17.09;88.57
35908;BME280;22003;50.320;8.054;2023-05-08T13:12:02;100233.13;;;17.19;88.34
35908;BME280;22003;50.320;8.054;2023-05-08T13:14:27;100213.66;;;17.27;88.28
35908;BME280;22003;50.320;8.054;2023-05-08T13:16:52;100204.22;;;16.77;87.64
35908;BME280;22003;50.320;8.054;2023-05-08T13:19:18;100226.69;;;16.84;89.48
35908;BME280;22003;50.320;8.054;2023-05-08T13:21:43;100226.34;;;17.42;87.74
35908;BME280;22003;50.320;8.054;2023-05-08T13:24:14;100229.81;;;17.88;87.52
35908;BME280;22003;50.320;8.054;2023-05-08T13:26:40;100226.25;;;17.34;87.65
35908;BME280;22003;50.320;8.054;2023-05-08T13:29:05;100213.00;;;17.78;84.81
35908;BME280;22003;50.320;8.054;2023-05-08T13:31:30;100206.97;;;17.49;86.51
35908;BME280;22003;50.320;8.054;2023-05-08T13:33:56;100211.59;;;17.38;88.24
35908;BME280;22003;50.320;8.054;2023-05-08T13:36:22;100208.97;;;17.29;87.94
35908;BME280;22003;50.320;8.054;2023-05-08T13:38:47;100204.31;;;17.66;85.41
35908;BME280;22003;50.320;8.054;2023-05-08T13:41:12;100202.19;;;18.14;85.65
35908;BME280;22003;50.320;8.054;2023-05-08T13:43:38;100200.72;;;17.76;86.35
35908;BME280;22003;50.320;8.054;2023-05-08T13:46:04;100195.47;;;18.36;84.09
35908;BME280;22003;50.320;8.054;2023-05-08T13:48:29;100196.38;;;18.53;84.22
35908;BME280;22003;50.320;8.054;2023-05-08T13:50:54;100188.09;;;18.12;83.85
35908;BME280;22003;50.320;8.054;2023-05-08T13:53:19;100167.44;;;18.30;85.58
35908;BME280;22003;50.320;8.054;2023-05-08T13:55:45;100192.00;;;18.43;83.91
35908;BME280;22003;50.320;8.054;2023-05-08T13:58:10;100192.31;;;18.40;83.29
35908;BME280;22003;50.320;8.054;2023-05-08T14:00:35;100173.72;;;18.73;80.50
35908;BME280;22003;50.320;8.054;2023-05-08T14:03:01;100166.44;;;17.79;86.29
35908;BME280;22003;50.320;8.054;2023-05-08T14:05:26;100188.84;;;17.25;88.40
35908;BME280;22003;50.320;8.054;2023-05-08T14:07:52;100189.53;;;17.80;87.70
35908;BME280;22003;50.320;8.054;2023-05-08T14:10:17;100178.78;;;17.72;86.73
35908;BME280;22003;50.320;8.054;2023-05-08T14:12:42;100179.53;;;17.82;86.93
35908;BME280;22003;50.320;8.054;2023-05-08T14:15:08;100173.22;;;17.91;85.30
35908;BME280;22003;50.320;8.054;2023-05-08T14:17:34;100187.16;;;17.24;88.76
35908;BME280;22003;50.320;8.054;2023-05-08T14:20:00;100182.97;;;17.39;89.50
35908;BME280;22003;50.320;8.054;2023-05-08T14:22:25;100178.91;;;18.14;86.00
35908;BME280;22003;50.320;8.054;2023-05-08T14:24:50;100186.97;;;18.48;85.46
35908;BME280;22003;50.320;8.054;2023-05-08T14:27:17;100176.44;;;17.41;89.33
35908;BME280;22003;50.320;8.054;2023-05-08T14:29:42;100170.78;;;17.45;88.83
35908;BME280;22003;50.320;8.054;2023-05-08T14:32:07;100156.38;;;17.63;88.53
35908;BME280;22003;50.320;8.054;2023-05-08T14:34:34;100178.34;;;17.67;87.20
35908;BME280;22003;50.320;8.054;2023-05-08T14:37:00;100154.03;;;17.78;87.45
35908;BME280;22003;50.320;8.054;2023-05-08T14:39:25;100161.97;;;17.52;89.50
35908;BME280;22003;50.320;8.054;2023-05-08T14:41:50;100164.38;;;18.25;85.17
35908;BME280;22003;50.320;8.054;2023-05-08T14:44:15;100162.22;;;18.63;83.81
35908;BME280;22003;50.320;8.054;2023-05-08T14:46:41;100163.28;;;18.10;87.73
35908;BME280;22003;50.320;8.054;2023-05-08T14:49:06;100162.03;;;18.90;84.78
35908;BME280;22003;50.320;8.054;2023-05-08T14:51:31;100152.56;;;18.70;83.91
35908;BME280;22003;50.320;8.054;2023-05-08T14:53:57;100154.59;;;18.76;83.61
35908;BME280;22003;50.320;8.054;2023-05-08T14:56:23;100159.63;;;18.11;88.15
35908;BME280;22003;50.320;8.054;2023-05-08T14:58:49;100132.00;;;18.18;86.89
35908;BME280;22003;50.320;8.054;2023-05-08T15:01:15;100148.97;;;17.75;89.74
35908;BME280;22003;50.320;8.054;2023-05-08T15:03:40;100155.09;;;17.50;91.59
35908;BME280;22003;50.320;8.054;2023-05-08T15:06:06;100140.38;;;18.50;88.02
35908;BME280;22003;50.320;8.054;2023-05-08T15:08:31;100124.75;;;17.85;89.60
35908;BME280;22003;50.320;8.054;2023-05-08T15:10:56;100145.47;;;18.61;86.27
35908;BME280;22003;50.320;8.054;2023-05-08T15:13:22;100150.38;;;18.05;91.16
35908;BME280;22003;50.320;8.054;2023-05-08T15:15:47;100151.03;;;17.46;92.51
35908;BME280;22003;50.320;8.054;2023-05-08T15:18:13;100133.75;;;17.22;94.60
35908;BME280;22003;50.320;8.054;2023-05-08T15:20:38;100145.44;;;17.75;93.12
35908;BME280;22003;50.320;8.054;2023-05-08T15:23:03;100148.09;;;18.18;91.71
35908;BME280;22003;50.320;8.054;2023-05-08T15:25:28;100153.41;;;17.66;92.31
35908;BME280;22003;50.320;8.054;2023-05-08T15:27:54;100145.59;;;17.02;96.32
35908;BME280;22003;50.320;8.054;2023-05-08T15:30:19;100138.41;;;17.56;95.06
35908;BME280;22003;50.320;8.054;2023-05-08T15:32:45;100157.47;;;17.53;92.37
35908;BME280;22003;50.320;8.054;2023-05-08T15:35:10;100150.41;;;16.98;95.33
35908;BME280;22003;50.320;8.054;2023-05-08T15:37:35;100120.09;;;16.80;96.42
35908;BME280;22003;50.320;8.054;2023-05-08T15:40:02;100147.41;;;16.83;96.52
35908;BME280;22003;50.320;8.054;2023-05-08T15:42:27;100148.25;;;16.84;98.01
35908;BME280;22003;50.320;8.054;2023-05-08T15:44:56;100118.38;;;17.06;96.87
35908;BME280;22003;50.320;8.054;2023-05-08T15:47:22;100142.69;;;17.31;95.69
35908;BME280;22003;50.320;8.054;2023-05-08T15:49:47;100146.28;;;17.57;94.46
35908;BME280;22003;50.320;8.054;2023-05-08T15:52:12;100113.59;;;17.54;93.10
35908;BME280;22003;50.320;8.054;2023-05-08T15:54:42;100146.81;;;17.43;94.79
35908;BME280;22003;50.320;8.054;2023-05-08T15:57:07;100153.41;;;17.13;94.53
35908;BME280;22003;50.320;8.054;2023-05-08T15:59:32;100146.22;;;16.96;96.08
35908;BME280;22003;50.320;8.054;2023-05-08T16:01:58;100149.72;;;17.14;97.68
35908;BME280;22003;50.320;8.054;2023-05-08T16:04:23;100159.38;;;17.42;95.82
35908;BME280;22003;50.320;8.054;2023-05-08T16:06:48;100141.03;;;17.12;96.32
35908;BME280;22003;50.320;8.054;2023-05-08T16:09:13;100150.72;;;17.31;94.69
35908;BME280;22003;50.320;8.054;2023-05-08T16:11:39;100122.56;;;16.91;96.17
35908;BME280;22003;50.320;8.054;2023-05-08T16:14:04;100154.47;;;17.20;98.01
35908;BME280;22003;50.320;8.054;2023-05-08T16:16:29;100129.06;;;16.88;97.17
35908;BME280;22003;50.320;8.054;2023-05-08T16:18:55;100145.25;;;16.87;97.50
35908;BME280;22003;50.320;8.054;2023-05-08T16:21:20;100149.56;;;16.98;97.43
35908;BME280;22003;50.320;8.054;2023-05-08T16:23:45;100157.69;;;17.41;96.53
35908;BME280;22003;50.320;8.054;2023-05-08T16:26:11;100130.22;;;17.75;94.15
35908;BME280;22003;50.320;8.054;2023-05-08T16:28:37;100137.34;;;17.92;91.65
35908;BME280;22003;50.320;8.054;2023-05-08T16:31:02;100141.22;;;17.90;92.00
35908;BME280;22003;50.320;8.054;2023-05-08T16:33:30;100139.50;;;17.27;94.34
35908;BME280;22003;50.320;8.054;2023-05-08T16:35:56;100123.25;;;17.47;94.13
35908;BME280;22003;50.320;8.054;2023-05-08T16:38:21;100134.00;;;17.90;93.58
35908;BME280;22003;50.320;8.054;2023-05-08T16:40:46;100138.03;;;18.20;91.07
35908;BME280;22003;50.320;8.054;2023-05-08T16:43:11;100125.97;;;18.16;89.89
35908;BME280;22003;50.320;8.054;2023-05-08T16:45:37;100116.91;;;17.91;91.00
35908;BME280;22003;50.320;8.054;2023-05-08T16:48:02;100131.25;;;18.08;92.34
35908;BME280;22003;50.320;8.054;2023-05-08T16:50:28;100131.63;;;17.87;92.68
35908;BME280;22003;50.320;8.054;2023-05-08T16:52:53;100118.06;;;17.71;94.29
35908;BME280;22003;50.320;8.054;2023-05-08T16:55:19;100097.72;;;17.34;93.66
35908;BME280;22003;50.320;8.054;2023-05-08T16:57:44;100089.47;;;17.28;94.96
35908;BME280;22003;50.320;8.054;2023-05-08T17:00:10;100114.78;;;17.33;96.49
35908;BME280;22003;50.320;8.054;2023-05-08T17:02:36;100110.13;;;17.18;97.29
35908;BME280;22003;50.320;8.054;2023-05-08T17:05:01;100119.28;;;17.15;99.24
35908;BME280;22003;50.320;8.054;2023-05-08T17:07:26;100120.00;;;16.99;100.00